sensor_id;sensor_type;location;lat;lon;timestamp;P1;durP1;ratioP1;P2;durP2;ratioP2
17398;SDS011;8817;48.170;8.592;2023-03-01T00:00:05;8.80;;;5.97;;
17398;SDS011;8817;48.170;8.592;2023-03-01T00:02:33;6.83;;;5.40;;
17398;SDS011;8817;48.170;8.592;2023-03-01T00:05:00;7.93;;;5.90;;
17398;SDS011;8817;48.170;8.592;2023-03-01T00:07:27;5.93;;;5.40;;
17398;SDS011;8817;48.170;8.592;2023-03-01T00:09:54;6.53;;;5.93;;
17398;SDS011;8817;48.170;8.592;2023-03-01T00:12:22;9.27;;;6.07;;
17398;SDS011;8817;48.170;8.592;2023-03-01T00:14:50;10.17;;;6.33;;
17398;SDS011;8817;48.170;8.592;2023-03-01T00:17:17;7.37;;;6.03;;
17398;SDS011;8817;48.170;8.592;2023-03-01T00:19:43;6.27;;;5.77;;
17398;SDS011;8817;48.170;8.592;2023-03-01T00:22:10;9.90;;;6.80;;
17398;SDS011;8817;48.170;8.592;2023-03-01T00:24:37;7.33;;;6.17;;
17398;SDS011;8817;48.170;8.592;2023-03-01T00:27:04;9.77;;;5.67;;
17398;SDS011;8817;48.170;8.592;2023-03-01T00:29:34;11.33;;;6.67;;
17398;SDS011;8817;48.170;8.592;2023-03-01T00:32:01;7.33;;;6.63;;
17398;SDS011;8817;48.170;8.592;2023-03-01T00:34:28;8.03;;;6.13;;
17398;SDS011;8817;48.170;8.592;2023-03-01T00:36:55;7.53;;;6.60;;
17398;SDS011;8817;48.170;8.592;2023-03-01T00:39:30;9.20;;;6.83;;
17398;SDS011;8817;48.170;8.592;2023-03-01T00:41:58;7.97;;;6.37;;
17398;SDS011;8817;48.170;8.592;2023-03-01T00:44:27;7.30;;;6.40;;
17398;SDS011;8817;48.170;8.592;2023-03-01T00:46:55;9.63;;;7.07;;
17398;SDS011;8817;48.170;8.592;2023-03-01T00:49:22;6.87;;;6.30;;
17398;SDS011;8817;48.170;8.592;2023-03-01T00:51:52;9.90;;;6.37;;
17398;SDS011;8817;48.170;8.592;2023-03-01T00:54:20;6.87;;;6.13;;
17398;SDS011;8817;48.170;8.592;2023-03-01T00:56:46;7.43;;;5.87;;
17398;SDS011;8817;48.170;8.592;2023-03-01T00:59:13;8.27;;;6.77;;
17398;SDS011;8817;48.170;8.592;2023-03-01T01:01:40;5.80;;;5.17;;
17398;SDS011;8817;48.170;8.592;2023-03-01T01:04:09;9.13;;;6.27;;
17398;SDS011;8817;48.170;8.592;2023-03-01T01:06:38;6.90;;;5.90;;
17398;SDS011;8817;48.170;8.592;2023-03-01T01:09:08;6.80;;;5.97;;
17398;SDS011;8817;48.170;8.592;2023-03-01T01:11:41;11.53;;;6.80;;
17398;SDS011;8817;48.170;8.592;2023-03-01T01:14:09;9.40;;;6.33;;
17398;SDS011;8817;48.170;8.592;2023-03-01T01:16:36;8.57;;;7.20;;
17398;SDS011;8817;48.170;8.592;2023-03-01T01:19:03;17.80;;;6.90;;
17398;SDS011;8817;48.170;8.592;2023-03-01T01:21:31;7.07;;;6.23;;
17398;SDS011;8817;48.170;8.592;2023-03-01T01:23:58;8.57;;;5.63;;
17398;SDS011;8817;48.170;8.592;2023-03-01T01:26:27;6.43;;;5.83;;
17398;SDS011;8817;48.170;8.592;2023-03-01T01:28:54;6.40;;;5.80;;
17398;SDS011;8817;48.170;8.592;2023-03-01T01:31:22;6.63;;;6.03;;
17398;SDS011;8817;48.170;8.592;2023-03-01T01:33:50;8.13;;;6.37;;
17398;SDS011;8817;48.170;8.592;2023-03-01T01:36:17;8.17;;;6.97;;
17398;SDS011;8817;48.170;8.592;2023-03-01T01:38:45;9.33;;;6.47;;
17398;SDS011;8817;48.170;8.592;2023-03-01T01:41:12;10.73;;;6.07;;
17398;SDS011;8817;48.170;8.592;2023-03-01T01:43:41;12.00;;;6.77;;
17398;SDS011;8817;48.170;8.592;2023-03-01T01:46:12;9.67;;;6.83;;
17398;SDS011;8817;48.170;8.592;2023-03-01T01:48:45;7.03;;;6.43;;
17398;SDS011;8817;48.170;8.592;2023-03-01T01:51:17;6.13;;;5.63;;
17398;SDS011;8817;48.170;8.592;2023-03-01T01:53:48;6.03;;;5.40;;
17398;SDS011;8817;48.170;8.592;2023-03-01T01:56:20;9.07;;;6.93;;
17398;SDS011;8817;48.170;8.592;2023-03-01T01:58:50;6.33;;;5.83;;
17398;SDS011;8817;48.170;8.592;2023-03-01T02:01:17;6.37;;;5.80;;
17398;SDS011;8817;48.170;8.592;2023-03-01T02:03:44;11.27;;;7.07;;
17398;SDS011;8817;48.170;8.592;2023-03-01T02:06:15;7.53;;;5.93;;
17398;SDS011;8817;48.170;8.592;2023-03-01T02:08:49;7.30;;;5.97;;
17398;SDS011;8817;48.170;8.592;2023-03-01T02:11:18;6.70;;;6.03;;
17398;SDS011;8817;48.170;8.592;2023-03-01T02:13:47;10.37;;;6.13;;
17398;SDS011;8817;48.170;8.592;2023-03-01T02:16:15;6.83;;;6.13;;
17398;SDS011;8817;48.170;8.592;2023-03-01T02:18:43;7.63;;;5.87;;
17398;SDS011;8817;48.170;8.592;2023-03-01T02:21:14;7.57;;;6.70;;
17398;SDS011;8817;48.170;8.592;2023-03-01T02:23:52;7.97;;;6.63;;
17398;SDS011;8817;48.170;8.592;2023-03-01T02:26:23;10.57;;;6.57;;
17398;SDS011;8817;48.170;8.592;2023-03-01T02:28:57;8.10;;;6.53;;
17398;SDS011;8817;48.170;8.592;2023-03-01T02:31:24;6.57;;;5.80;;
17398;SDS011;8817;48.170;8.592;2023-03-01T02:34:11;6.60;;;5.87;;
17398;SDS011;8817;48.170;8.592;2023-03-01T02:36:40;6.83;;;5.90;;
17398;SDS011;8817;48.170;8.592;2023-03-01T02:39:12;6.57;;;5.93;;
17398;SDS011;8817;48.170;8.592;2023-03-01T02:41:44;6.37;;;5.77;;
17398;SDS011;8817;48.170;8.592;2023-03-01T02:44:15;6.20;;;5.70;;
17398;SDS011;8817;48.170;8.592;2023-03-01T02:46:42;9.47;;;6.13;;
17398;SDS011;8817;48.170;8.592;2023-03-01T02:49:20;8.80;;;6.70;;
17398;SDS011;8817;48.170;8.592;2023-03-01T02:51:56;10.43;;;7.17;;
17398;SDS011;8817;48.170;8.592;2023-03-01T02:54:36;7.87;;;6.97;;
17398;SDS011;8817;48.170;8.592;2023-03-01T02:57:06;8.07;;;6.77;;
17398;SDS011;8817;48.170;8.592;2023-03-01T02:59:36;11.20;;;6.33;;
17398;SDS011;8817;48.170;8.592;2023-03-01T03:02:06;10.30;;;6.53;;
17398;SDS011;8817;48.170;8.592;2023-03-01T03:04:33;6.67;;;5.97;;
17398;SDS011;8817;48.170;8.592;2023-03-01T03:07:00;9.37;;;6.73;;
17398;SDS011;8817;48.170;8.592;2023-03-01T03:09:27;8.00;;;6.40;;
17398;SDS011;8817;48.170;8.592;2023-03-01T03:11:54;6.07;;;5.50;;
17398;SDS011;8817;48.170;8.592;2023-03-01T03:14:21;11.40;;;6.43;;
17398;SDS011;8817;48.170;8.592;2023-03-01T03:16:50;9.57;;;6.03;;
17398;SDS011;8817;48.170;8.592;2023-03-01T03:19:17;6.30;;;5.80;;
17398;SDS011;8817;48.170;8.592;2023-03-01T03:21:45;6.40;;;5.80;;
17398;SDS011;8817;48.170;8.592;2023-03-01T03:24:12;6.57;;;5.90;;
17398;SDS011;8817;48.170;8.592;2023-03-01T03:26:39;14.30;;;7.00;;
17398;SDS011;8817;48.170;8.592;2023-03-01T03:29:06;10.07;;;7.03;;
17398;SDS011;8817;48.170;8.592;2023-03-01T03:31:33;10.23;;;7.17;;
17398;SDS011;8817;48.170;8.592;2023-03-01T03:34:01;5.70;;;5.20;;
17398;SDS011;8817;48.170;8.592;2023-03-01T03:36:28;7.10;;;6.47;;
17398;SDS011;8817;48.170;8.592;2023-03-01T03:38:56;8.47;;;6.63;;
17398;SDS011;8817;48.170;8.592;2023-03-01T03:41:22;7.10;;;6.40;;
17398;SDS011;8817;48.170;8.592;2023-03-01T03:43:49;9.70;;;6.47;;
17398;SDS011;8817;48.170;8.592;2023-03-01T03:46:16;7.90;;;5.93;;
17398;SDS011;8817;48.170;8.592;2023-03-01T03:48:44;8.63;;;7.20;;
17398;SDS011;8817;48.170;8.592;2023-03-01T03:51:14;9.00;;;6.90;;
17398;SDS011;8817;48.170;8.592;2023-03-01T03:53:42;7.97;;;6.13;;
17398;SDS011;8817;48.170;8.592;2023-03-01T03:56:10;12.57;;;6.73;;
17398;SDS011;8817;48.170;8.592;2023-03-01T03:58:37;6.73;;;6.10;;
17398;SDS011;8817;48.170;8.592;2023-03-01T04:01:04;8.83;;;6.43;;
17398;SDS011;8817;48.170;8.592;2023-03-01T04:03:32;7.20;;;6.50;;
17398;SDS011;8817;48.170;8.592;2023-03-01T04:06:00;7.37;;;6.27;;
17398;SDS011;8817;48.170;8.592;2023-03-01T04:08:29;13.33;;;6.93;;
17398;SDS011;8817;48.170;8.592;2023-03-01T04:10:59;10.63;;;6.00;;
17398;SDS011;8817;48.170;8.592;2023-03-01T04:13:48;6.63;;;6.07;;
17398;SDS011;8817;48.170;8.592;2023-03-01T04:16:15;19.80;;;6.77;;
17398;SDS011;8817;48.170;8.592;2023-03-01T04:18:43;12.60;;;6.93;;
17398;SDS011;8817;48.170;8.592;2023-03-01T04:21:10;6.60;;;6.03;;
17398;SDS011;8817;48.170;8.592;2023-03-01T04:23:39;7.97;;;6.50;;
17398;SDS011;8817;48.170;8.592;2023-03-01T04:26:07;9.13;;;7.13;;
17398;SDS011;8817;48.170;8.592;2023-03-01T04:28:35;7.13;;;6.27;;
17398;SDS011;8817;48.170;8.592;2023-03-01T04:31:05;10.27;;;6.60;;
17398;SDS011;8817;48.170;8.592;2023-03-01T04:33:38;12.13;;;7.10;;
17398;SDS011;8817;48.170;8.592;2023-03-01T04:36:07;7.53;;;6.57;;
17398;SDS011;8817;48.170;8.592;2023-03-01T04:38:34;7.30;;;6.17;;
17398;SDS011;8817;48.170;8.592;2023-03-01T04:41:04;7.90;;;6.87;;
17398;SDS011;8817;48.170;8.592;2023-03-01T04:43:31;8.33;;;6.90;;
17398;SDS011;8817;48.170;8.592;2023-03-01T04:46:02;11.10;;;7.27;;
17398;SDS011;8817;48.170;8.592;2023-03-01T04:48:29;8.97;;;7.13;;
17398;SDS011;8817;48.170;8.592;2023-03-01T04:50:57;7.83;;;6.70;;
17398;SDS011;8817;48.170;8.592;2023-03-01T04:53:25;8.03;;;6.73;;
17398;SDS011;8817;48.170;8.592;2023-03-01T04:55:53;7.97;;;6.20;;
17398;SDS011;8817;48.170;8.592;2023-03-01T04:58:22;12.67;;;6.83;;
17398;SDS011;8817;48.170;8.592;2023-03-01T05:00:50;8.93;;;6.63;;
17398;SDS011;8817;48.170;8.592;2023-03-01T05:03:17;9.37;;;6.87;;
17398;SDS011;8817;48.170;8.592;2023-03-01T05:05:45;8.60;;;6.87;;
17398;SDS011;8817;48.170;8.592;2023-03-01T05:08:13;11.13;;;6.87;;
17398;SDS011;8817;48.170;8.592;2023-03-01T05:10:43;11.10;;;7.07;;
17398;SDS011;8817;48.170;8.592;2023-03-01T05:13:12;9.23;;;7.17;;
17398;SDS011;8817;48.170;8.592;2023-03-01T05:15:47;6.43;;;5.77;;
17398;SDS011;8817;48.170;8.592;2023-03-01T05:18:15;7.87;;;6.83;;
17398;SDS011;8817;48.170;8.592;2023-03-01T05:20:42;7.47;;;6.83;;
17398;SDS011;8817;48.170;8.592;2023-03-01T05:23:10;13.17;;;7.63;;
17398;SDS011;8817;48.170;8.592;2023-03-01T05:25:37;11.00;;;6.87;;
17398;SDS011;8817;48.170;8.592;2023-03-01T05:28:05;9.63;;;6.63;;
17398;SDS011;8817;48.170;8.592;2023-03-01T05:30:34;11.70;;;8.30;;
17398;SDS011;8817;48.170;8.592;2023-03-01T05:33:04;10.90;;;7.03;;
17398;SDS011;8817;48.170;8.592;2023-03-01T05:35:38;6.97;;;6.37;;
17398;SDS011;8817;48.170;8.592;2023-03-01T05:38:05;10.20;;;6.40;;
17398;SDS011;8817;48.170;8.592;2023-03-01T05:40:32;7.77;;;7.03;;
17398;SDS011;8817;48.170;8.592;2023-03-01T05:43:00;12.27;;;6.80;;
17398;SDS011;8817;48.170;8.592;2023-03-01T05:45:30;8.50;;;7.53;;
17398;SDS011;8817;48.170;8.592;2023-03-01T05:47:58;7.80;;;7.00;;
17398;SDS011;8817;48.170;8.592;2023-03-01T05:50:27;9.30;;;6.60;;
17398;SDS011;8817;48.170;8.592;2023-03-01T05:52:59;13.53;;;6.77;;
17398;SDS011;8817;48.170;8.592;2023-03-01T05:55:28;8.33;;;6.90;;
17398;SDS011;8817;48.170;8.592;2023-03-01T05:57:57;11.00;;;7.07;;
17398;SDS011;8817;48.170;8.592;2023-03-01T06:00:25;11.20;;;8.00;;
17398;SDS011;8817;48.170;8.592;2023-03-01T06:02:53;9.40;;;7.13;;
17398;SDS011;8817;48.170;8.592;2023-03-01T06:05:20;8.63;;;6.80;;
17398;SDS011;8817;48.170;8.592;2023-03-01T06:07:48;8.00;;;7.30;;
17398;SDS011;8817;48.170;8.592;2023-03-01T06:10:16;11.40;;;7.90;;
17398;SDS011;8817;48.170;8.592;2023-03-01T06:12:44;10.00;;;7.20;;
17398;SDS011;8817;48.170;8.592;2023-03-01T06:15:12;10.03;;;7.60;;
17398;SDS011;8817;48.170;8.592;2023-03-01T06:17:41;9.40;;;7.80;;
17398;SDS011;8817;48.170;8.592;2023-03-01T06:20:09;9.30;;;7.73;;
17398;SDS011;8817;48.170;8.592;2023-03-01T06:22:39;9.00;;;7.70;;
17398;SDS011;8817;48.170;8.592;2023-03-01T06:25:09;8.17;;;7.43;;
17398;SDS011;8817;48.170;8.592;2023-03-01T06:27:37;10.57;;;8.23;;
17398;SDS011;8817;48.170;8.592;2023-03-01T06:30:05;8.77;;;6.97;;
17398;SDS011;8817;48.170;8.592;2023-03-01T06:32:34;9.07;;;7.93;;
17398;SDS011;8817;48.170;8.592;2023-03-01T06:35:02;9.07;;;6.93;;
17398;SDS011;8817;48.170;8.592;2023-03-01T06:37:29;8.00;;;7.20;;
17398;SDS011;8817;48.170;8.592;2023-03-01T06:39:56;8.50;;;7.67;;
17398;SDS011;8817;48.170;8.592;2023-03-01T06:42:24;10.03;;;7.40;;
17398;SDS011;8817;48.170;8.592;2023-03-01T06:44:51;10.70;;;7.70;;
17398;SDS011;8817;48.170;8.592;2023-03-01T06:47:19;10.07;;;7.87;;
17398;SDS011;8817;48.170;8.592;2023-03-01T06:49:45;9.17;;;7.67;;
17398;SDS011;8817;48.170;8.592;2023-03-01T06:52:12;7.93;;;7.13;;
17398;SDS011;8817;48.170;8.592;2023-03-01T06:54:39;7.97;;;6.70;;
17398;SDS011;8817;48.170;8.592;2023-03-01T06:57:06;10.47;;;7.67;;
17398;SDS011;8817;48.170;8.592;2023-03-01T06:59:35;9.73;;;7.97;;
17398;SDS011;8817;48.170;8.592;2023-03-01T07:02:01;12.27;;;7.87;;
17398;SDS011;8817;48.170;8.592;2023-03-01T07:04:28;7.90;;;7.00;;
17398;SDS011;8817;48.170;8.592;2023-03-01T07:06:56;10.33;;;7.43;;
17398;SDS011;8817;48.170;8.592;2023-03-01T07:09:23;9.67;;;7.60;;
17398;SDS011;8817;48.170;8.592;2023-03-01T07:11:50;8.40;;;7.60;;
17398;SDS011;8817;48.170;8.592;2023-03-01T07:14:17;7.33;;;6.67;;
17398;SDS011;8817;48.170;8.592;2023-03-01T07:16:46;8.77;;;7.33;;
17398;SDS011;8817;48.170;8.592;2023-03-01T07:19:13;10.33;;;7.17;;
17398;SDS011;8817;48.170;8.592;2023-03-01T07:21:40;9.70;;;7.30;;
17398;SDS011;8817;48.170;8.592;2023-03-01T07:24:08;12.30;;;8.03;;
17398;SDS011;8817;48.170;8.592;2023-03-01T07:26:36;8.50;;;7.57;;
17398;SDS011;8817;48.170;8.592;2023-03-01T07:29:04;8.30;;;7.20;;
17398;SDS011;8817;48.170;8.592;2023-03-01T07:31:33;8.37;;;7.50;;
17398;SDS011;8817;48.170;8.592;2023-03-01T07:34:02;9.53;;;7.03;;
17398;SDS011;8817;48.170;8.592;2023-03-01T07:36:29;11.37;;;6.93;;
17398;SDS011;8817;48.170;8.592;2023-03-01T07:38:56;10.40;;;8.00;;
17398;SDS011;8817;48.170;8.592;2023-03-01T07:41:23;10.93;;;8.77;;
17398;SDS011;8817;48.170;8.592;2023-03-01T07:43:51;15.90;;;7.33;;
17398;SDS011;8817;48.170;8.592;2023-03-01T07:46:18;14.30;;;8.33;;
17398;SDS011;8817;48.170;8.592;2023-03-01T07:48:45;10.33;;;7.73;;
17398;SDS011;8817;48.170;8.592;2023-03-01T07:51:13;8.33;;;6.37;;
17398;SDS011;8817;48.170;8.592;2023-03-01T07:53:40;8.13;;;7.40;;
17398;SDS011;8817;48.170;8.592;2023-03-01T07:56:08;10.53;;;7.60;;
17398;SDS011;8817;48.170;8.592;2023-03-01T07:58:37;18.93;;;8.53;;
17398;SDS011;8817;48.170;8.592;2023-03-01T08:01:05;10.40;;;7.67;;
17398;SDS011;8817;48.170;8.592;2023-03-01T08:03:34;8.07;;;7.00;;
17398;SDS011;8817;48.170;8.592;2023-03-01T08:06:01;10.27;;;6.90;;
17398;SDS011;8817;48.170;8.592;2023-03-01T08:08:31;10.23;;;7.43;;
17398;SDS011;8817;48.170;8.592;2023-03-01T08:10:59;11.60;;;7.07;;
17398;SDS011;8817;48.170;8.592;2023-03-01T08:13:27;13.13;;;8.27;;
17398;SDS011;8817;48.170;8.592;2023-03-01T08:16:00;14.23;;;8.23;;
17398;SDS011;8817;48.170;8.592;2023-03-01T08:18:28;7.87;;;6.80;;
17398;SDS011;8817;48.170;8.592;2023-03-01T08:20:55;9.47;;;6.87;;
17398;SDS011;8817;48.170;8.592;2023-03-01T08:23:22;9.23;;;7.77;;
17398;SDS011;8817;48.170;8.592;2023-03-01T08:25:50;9.03;;;7.33;;
17398;SDS011;8817;48.170;8.592;2023-03-01T08:28:18;12.37;;;7.70;;
17398;SDS011;8817;48.170;8.592;2023-03-01T08:30:44;8.60;;;7.50;;
17398;SDS011;8817;48.170;8.592;2023-03-01T08:33:11;11.50;;;7.57;;
17398;SDS011;8817;48.170;8.592;2023-03-01T08:35:38;11.53;;;7.97;;
17398;SDS011;8817;48.170;8.592;2023-03-01T08:38:05;10.87;;;7.40;;
17398;SDS011;8817;48.170;8.592;2023-03-01T08:40:32;11.90;;;7.20;;
17398;SDS011;8817;48.170;8.592;2023-03-01T08:43:00;10.73;;;7.60;;
17398;SDS011;8817;48.170;8.592;2023-03-01T08:45:28;11.87;;;7.73;;
17398;SDS011;8817;48.170;8.592;2023-03-01T08:47:55;12.07;;;7.57;;
17398;SDS011;8817;48.170;8.592;2023-03-01T08:50:22;8.37;;;7.53;;
17398;SDS011;8817;48.170;8.592;2023-03-01T08:52:50;9.87;;;7.23;;
17398;SDS011;8817;48.170;8.592;2023-03-01T08:55:17;11.23;;;8.10;;
17398;SDS011;8817;48.170;8.592;2023-03-01T08:57:44;8.87;;;7.60;;
17398;SDS011;8817;48.170;8.592;2023-03-01T09:00:13;12.03;;;8.40;;
17398;SDS011;8817;48.170;8.592;2023-03-01T09:02:42;13.47;;;8.33;;
17398;SDS011;8817;48.170;8.592;2023-03-01T09:05:09;13.00;;;8.37;;
17398;SDS011;8817;48.170;8.592;2023-03-01T09:07:36;13.80;;;8.47;;
17398;SDS011;8817;48.170;8.592;2023-03-01T09:10:03;11.67;;;7.73;;
17398;SDS011;8817;48.170;8.592;2023-03-01T09:12:30;9.80;;;7.87;;
17398;SDS011;8817;48.170;8.592;2023-03-01T09:14:57;10.33;;;7.90;;
17398;SDS011;8817;48.170;8.592;2023-03-01T09:17:26;8.10;;;7.30;;
17398;SDS011;8817;48.170;8.592;2023-03-01T09:19:53;19.00;;;8.17;;
17398;SDS011;8817;48.170;8.592;2023-03-01T09:22:20;20.87;;;8.90;;
17398;SDS011;8817;48.170;8.592;2023-03-01T09:24:47;7.57;;;6.77;;
17398;SDS011;8817;48.170;8.592;2023-03-01T09:27:14;11.20;;;7.90;;
17398;SDS011;8817;48.170;8.592;2023-03-01T09:29:43;11.70;;;8.10;;
17398;SDS011;8817;48.170;8.592;2023-03-01T09:32:10;8.90;;;7.53;;
17398;SDS011;8817;48.170;8.592;2023-03-01T09:34:38;19.37;;;8.53;;
17398;SDS011;8817;48.170;8.592;2023-03-01T09:37:19;13.80;;;8.13;;
17398;SDS011;8817;48.170;8.592;2023-03-01T09:39:46;9.03;;;7.33;;
17398;SDS011;8817;48.170;8.592;2023-03-01T09:42:13;12.90;;;7.50;;
17398;SDS011;8817;48.170;8.592;2023-03-01T09:44:42;11.47;;;8.10;;
17398;SDS011;8817;48.170;8.592;2023-03-01T09:47:16;8.47;;;7.43;;
17398;SDS011;8817;48.170;8.592;2023-03-01T09:49:46;12.70;;;8.47;;
17398;SDS011;8817;48.170;8.592;2023-03-01T09:52:26;9.77;;;8.10;;
17398;SDS011;8817;48.170;8.592;2023-03-01T09:54:59;14.97;;;8.47;;
17398;SDS011;8817;48.170;8.592;2023-03-01T09:57:28;10.33;;;7.73;;
17398;SDS011;8817;48.170;8.592;2023-03-01T10:00:09;8.13;;;7.00;;
17398;SDS011;8817;48.170;8.592;2023-03-01T10:02:49;12.20;;;7.33;;
17398;SDS011;8817;48.170;8.592;2023-03-01T10:05:32;12.00;;;9.13;;
17398;SDS011;8817;48.170;8.592;2023-03-01T10:08:19;10.77;;;7.47;;
17398;SDS011;8817;48.170;8.592;2023-03-01T10:10:56;14.13;;;7.70;;
17398;SDS011;8817;48.170;8.592;2023-03-01T10:13:25;10.87;;;8.40;;
17398;SDS011;8817;48.170;8.592;2023-03-01T10:15:59;11.00;;;8.17;;
17398;SDS011;8817;48.170;8.592;2023-03-01T10:18:31;13.43;;;8.13;;
17398;SDS011;8817;48.170;8.592;2023-03-01T10:21:05;13.87;;;8.40;;
17398;SDS011;8817;48.170;8.592;2023-03-01T10:23:39;13.07;;;8.07;;
17398;SDS011;8817;48.170;8.592;2023-03-01T10:26:08;11.53;;;8.13;;
17398;SDS011;8817;48.170;8.592;2023-03-01T10:28:47;9.80;;;7.47;;
17398;SDS011;8817;48.170;8.592;2023-03-01T10:31:25;11.53;;;7.73;;
17398;SDS011;8817;48.170;8.592;2023-03-01T10:34:02;10.30;;;8.13;;
17398;SDS011;8817;48.170;8.592;2023-03-01T10:36:32;15.40;;;7.73;;
17398;SDS011;8817;48.170;8.592;2023-03-01T10:39:00;14.20;;;8.53;;
17398;SDS011;8817;48.170;8.592;2023-03-01T10:41:37;14.40;;;8.27;;
17398;SDS011;8817;48.170;8.592;2023-03-01T10:44:34;12.37;;;7.37;;
17398;SDS011;8817;48.170;8.592;2023-03-01T10:47:02;12.83;;;7.93;;
17398;SDS011;8817;48.170;8.592;2023-03-01T10:49:30;12.13;;;7.90;;
17398;SDS011;8817;48.170;8.592;2023-03-01T10:52:10;13.07;;;8.63;;
17398;SDS011;8817;48.170;8.592;2023-03-01T10:54:45;11.07;;;7.87;;
17398;SDS011;8817;48.170;8.592;2023-03-01T10:57:26;8.33;;;7.37;;
17398;SDS011;8817;48.170;8.592;2023-03-01T11:00:14;13.00;;;8.67;;
17398;SDS011;8817;48.170;8.592;2023-03-01T11:02:48;15.90;;;9.10;;
17398;SDS011;8817;48.170;8.592;2023-03-01T11:05:18;15.70;;;8.80;;
17398;SDS011;8817;48.170;8.592;2023-03-01T11:07:51;17.17;;;9.23;;
17398;SDS011;8817;48.170;8.592;2023-03-01T11:10:21;10.07;;;7.63;;
17398;SDS011;8817;48.170;8.592;2023-03-01T11:12:50;14.30;;;8.33;;
17398;SDS011;8817;48.170;8.592;2023-03-01T11:15:22;13.13;;;7.77;;
17398;SDS011;8817;48.170;8.592;2023-03-01T11:17:52;10.53;;;7.70;;
17398;SDS011;8817;48.170;8.592;2023-03-01T11:20:24;13.70;;;8.00;;
17398;SDS011;8817;48.170;8.592;2023-03-01T11:22:56;13.57;;;8.30;;
17398;SDS011;8817;48.170;8.592;2023-03-01T11:25:28;13.80;;;8.17;;
17398;SDS011;8817;48.170;8.592;2023-03-01T11:27:59;14.47;;;8.07;;
17398;SDS011;8817;48.170;8.592;2023-03-01T11:30:31;13.03;;;8.33;;
17398;SDS011;8817;48.170;8.592;2023-03-01T11:33:05;14.37;;;8.00;;
17398;SDS011;8817;48.170;8.592;2023-03-01T11:35:42;12.73;;;7.57;;
17398;SDS011;8817;48.170;8.592;2023-03-01T11:38:17;15.13;;;8.30;;
17398;SDS011;8817;48.170;8.592;2023-03-01T11:40:50;13.13;;;7.37;;
17398;SDS011;8817;48.170;8.592;2023-03-01T11:43:26;14.43;;;8.83;;
17398;SDS011;8817;48.170;8.592;2023-03-01T11:46:08;15.73;;;8.40;;
17398;SDS011;8817;48.170;8.592;2023-03-01T11:49:17;16.60;;;8.30;;
17398;SDS011;8817;48.170;8.592;2023-03-01T11:52:06;11.73;;;7.63;;
17398;SDS011;8817;48.170;8.592;2023-03-01T11:54:44;14.00;;;7.97;;
17398;SDS011;8817;48.170;8.592;2023-03-01T11:57:26;11.83;;;7.50;;
17398;SDS011;8817;48.170;8.592;2023-03-01T12:00:18;13.40;;;8.43;;
17398;SDS011;8817;48.170;8.592;2023-03-01T12:09:02;14.03;;;8.37;;
17398;SDS011;8817;48.170;8.592;2023-03-01T12:11:43;16.37;;;8.73;;
17398;SDS011;8817;48.170;8.592;2023-03-01T12:17:18;10.40;;;6.87;;
17398;SDS011;8817;48.170;8.592;2023-03-01T12:20:11;9.33;;;7.20;;
17398;SDS011;8817;48.170;8.592;2023-03-01T12:22:56;12.77;;;7.80;;
17398;SDS011;8817;48.170;8.592;2023-03-01T12:25:39;9.57;;;6.97;;
17398;SDS011;8817;48.170;8.592;2023-03-01T12:28:18;13.73;;;7.93;;
17398;SDS011;8817;48.170;8.592;2023-03-01T12:31:02;10.43;;;7.50;;
17398;SDS011;8817;48.170;8.592;2023-03-01T12:33:45;14.90;;;7.30;;
17398;SDS011;8817;48.170;8.592;2023-03-01T12:36:22;12.87;;;7.37;;
17398;SDS011;8817;48.170;8.592;2023-03-01T12:39:09;13.83;;;7.60;;
17398;SDS011;8817;48.170;8.592;2023-03-01T12:41:46;14.00;;;7.43;;
17398;SDS011;8817;48.170;8.592;2023-03-01T12:44:28;11.90;;;7.70;;
17398;SDS011;8817;48.170;8.592;2023-03-01T12:47:06;13.47;;;7.87;;
17398;SDS011;8817;48.170;8.592;2023-03-01T12:49:41;19.57;;;7.90;;
17398;SDS011;8817;48.170;8.592;2023-03-01T12:52:14;13.50;;;8.00;;
17398;SDS011;8817;48.170;8.592;2023-03-01T12:54:45;13.10;;;7.40;;
17398;SDS011;8817;48.170;8.592;2023-03-01T12:57:14;10.00;;;7.13;;
17398;SDS011;8817;48.170;8.592;2023-03-01T13:00:00;10.63;;;7.00;;
17398;SDS011;8817;48.170;8.592;2023-03-01T13:02:37;13.93;;;7.53;;
17398;SDS011;8817;48.170;8.592;2023-03-01T13:05:24;11.87;;;7.23;;
17398;SDS011;8817;48.170;8.592;2023-03-01T13:08:00;11.07;;;6.73;;
17398;SDS011;8817;48.170;8.592;2023-03-01T13:10:35;13.93;;;6.93;;
17398;SDS011;8817;48.170;8.592;2023-03-01T13:13:13;10.67;;;7.30;;
17398;SDS011;8817;48.170;8.592;2023-03-01T13:15:47;12.43;;;7.50;;
17398;SDS011;8817;48.170;8.592;2023-03-01T13:18:29;12.17;;;7.50;;
17398;SDS011;8817;48.170;8.592;2023-03-01T13:20:58;13.17;;;7.70;;
17398;SDS011;8817;48.170;8.592;2023-03-01T13:23:28;13.10;;;8.03;;
17398;SDS011;8817;48.170;8.592;2023-03-01T13:26:02;10.90;;;7.30;;
17398;SDS011;8817;48.170;8.592;2023-03-01T13:28:38;13.03;;;7.70;;
17398;SDS011;8817;48.170;8.592;2023-03-01T13:31:09;14.00;;;8.20;;
17398;SDS011;8817;48.170;8.592;2023-03-01T13:33:40;13.63;;;7.80;;
17398;SDS011;8817;48.170;8.592;2023-03-01T13:36:09;12.33;;;7.27;;
17398;SDS011;8817;48.170;8.592;2023-03-01T13:38:48;12.67;;;7.50;;
17398;SDS011;8817;48.170;8.592;2023-03-01T13:44:20;13.00;;;7.60;;
17398;SDS011;8817;48.170;8.592;2023-03-01T13:46:53;11.13;;;7.30;;
17398;SDS011;8817;48.170;8.592;2023-03-01T13:49:23;14.83;;;7.53;;
17398;SDS011;8817;48.170;8.592;2023-03-01T13:51:53;10.07;;;6.97;;
17398;SDS011;8817;48.170;8.592;2023-03-01T13:54:24;12.53;;;7.37;;
17398;SDS011;8817;48.170;8.592;2023-03-01T13:56:54;11.03;;;7.50;;
17398;SDS011;8817;48.170;8.592;2023-03-01T13:59:22;11.73;;;7.67;;
17398;SDS011;8817;48.170;8.592;2023-03-01T14:01:56;13.97;;;7.50;;
17398;SDS011;8817;48.170;8.592;2023-03-01T14:04:24;13.87;;;8.07;;
17398;SDS011;8817;48.170;8.592;2023-03-01T14:07:08;18.63;;;7.60;;
17398;SDS011;8817;48.170;8.592;2023-03-01T14:09:37;14.73;;;7.97;;
17398;SDS011;8817;48.170;8.592;2023-03-01T14:12:14;12.13;;;7.67;;
17398;SDS011;8817;48.170;8.592;2023-03-01T14:14:58;13.57;;;8.13;;
17398;SDS011;8817;48.170;8.592;2023-03-01T14:17:41;14.93;;;8.57;;
17398;SDS011;8817;48.170;8.592;2023-03-01T14:20:20;13.93;;;8.80;;
17398;SDS011;8817;48.170;8.592;2023-03-01T14:22:48;16.20;;;8.20;;
17398;SDS011;8817;48.170;8.592;2023-03-01T14:25:22;13.87;;;8.13;;
17398;SDS011;8817;48.170;8.592;2023-03-01T14:27:55;12.23;;;8.17;;
17398;SDS011;8817;48.170;8.592;2023-03-01T14:30:25;10.97;;;7.50;;
17398;SDS011;8817;48.170;8.592;2023-03-01T14:32:56;10.50;;;7.57;;
17398;SDS011;8817;48.170;8.592;2023-03-01T14:35:25;17.85;;;8.45;;
17398;SDS011;8817;48.170;8.592;2023-03-01T14:37:53;16.23;;;8.17;;
17398;SDS011;8817;48.170;8.592;2023-03-01T14:40:24;14.20;;;7.90;;
17398;SDS011;8817;48.170;8.592;2023-03-01T14:42:53;14.43;;;8.63;;
17398;SDS011;8817;48.170;8.592;2023-03-01T14:45:24;12.88;;;8.45;;
17398;SDS011;8817;48.170;8.592;2023-03-01T14:47:52;12.85;;;8.43;;
17398;SDS011;8817;48.170;8.592;2023-03-01T14:50:23;14.82;;;8.88;;
17398;SDS011;8817;48.170;8.592;2023-03-01T14:52:52;15.90;;;8.75;;
17398;SDS011;8817;48.170;8.592;2023-03-01T14:55:24;16.48;;;8.88;;
17398;SDS011;8817;48.170;8.592;2023-03-01T14:57:53;15.98;;;8.48;;
17398;SDS011;8817;48.170;8.592;2023-03-01T15:00:21;17.17;;;8.85;;
17398;SDS011;8817;48.170;8.592;2023-03-01T15:02:51;15.27;;;8.48;;
17398;SDS011;8817;48.170;8.592;2023-03-01T15:05:24;15.00;;;8.60;;
17398;SDS011;8817;48.170;8.592;2023-03-01T15:07:55;16.77;;;8.75;;
17398;SDS011;8817;48.170;8.592;2023-03-01T15:10:25;20.27;;;9.10;;
17398;SDS011;8817;48.170;8.592;2023-03-01T15:12:55;14.45;;;8.63;;
17398;SDS011;8817;48.170;8.592;2023-03-01T15:15:32;15.38;;;8.90;;
17398;SDS011;8817;48.170;8.592;2023-03-01T15:18:03;19.88;;;9.10;;
17398;SDS011;8817;48.170;8.592;2023-03-01T15:20:39;12.00;;;8.52;;
17398;SDS011;8817;48.170;8.592;2023-03-01T15:23:06;15.05;;;8.45;;
17398;SDS011;8817;48.170;8.592;2023-03-01T15:25:48;18.02;;;8.63;;